sensor_id;sensor_type;location;lat;lon;timestamp;pressure;altitude;pressure_sealevel;temperature;humidity
34931;BME280;21134;49.646;8.560;2022-12-07T00:00:32;100772.50;;;2.98;100.00
34931;BME280;21134;49.646;8.560;2022-12-07T00:02:59;100770.94;;;3.02;100.00
34931;BME280;21134;49.646;8.560;2022-12-07T00:05:26;100776.94;;;3.06;100.00
34931;BME280;21134;49.646;8.560;2022-12-07T00:07:53;100777.69;;;3.03;100.00
34931;BME280;21134;49.646;8.560;2022-12-07T00:10:19;100771.75;;;3.01;100.00
34931;BME280;21134;49.646;8.560;2022-12-07T00:12:46;100769.22;;;3.01;100.00
34931;BME280;21134;49.646;8.560;2022-12-07T00:15:12;100768.41;;;3.02;100.00
34931;BME280;21134;49.646;8.560;2022-12-07T00:17:39;100766.69;;;3.01;100.00
34931;BME280;21134;49.646;8.560;2022-12-07T00:20:06;100762.47;;;3.00;100.00
34931;BME280;21134;49.646;8.560;2022-12-07T00:22:34;100761.66;;;3.01;100.00
34931;BME280;21134;49.646;8.560;2022-12-07T00:25:01;100759.16;;;3.02;100.00
34931;BME280;21134;49.646;8.560;2022-12-07T00:27:27;100749.91;;;3.03;100.00
34931;BME280;21134;49.646;8.560;2022-12-07T00:29:54;100754.09;;;3.02;100.00
34931;BME280;21134;49.646;8.560;2022-12-07T00:32:20;100741.47;;;3.02;100.00
34931;BME280;21134;49.646;8.560;2022-12-07T00:34:46;100740.59;;;3.02;100.00
34931;BME280;21134;49.646;8.560;2022-12-07T00:37:13;100744.00;;;3.02;100.00
34931;BME280;21134;49.646;8.560;2022-12-07T00:39:41;100743.09;;;3.00;100.00
34931;BME280;21134;49.646;8.560;2022-12-07T00:42:07;100740.56;;;3.00;100.00
34931;BME280;21134;49.646;8.560;2022-12-07T00:44:34;100737.22;;;3.01;100.00
34931;BME280;21134;49.646;8.560;2022-12-07T00:47:00;100743.13;;;3.02;100.00
34931;BME280;21134;49.646;8.560;2022-12-07T00:49:27;100736.41;;;3.02;100.00
34931;BME280;21134;49.646;8.560;2022-12-07T00:51:53;100735.63;;;3.03;100.00
34931;BME280;21134;49.646;8.560;2022-12-07T00:54:20;100737.34;;;3.05;100.00
34931;BME280;21134;49.646;8.560;2022-12-07T00:56:47;100737.38;;;3.06;100.00
34931;BME280;21134;49.646;8.560;2022-12-07T00:59:14;100729.78;;;3.06;100.00
34931;BME280;21134;49.646;8.560;2022-12-07T01:01:40;100736.47;;;3.04;100.00
34931;BME280;21134;49.646;8.560;2022-12-07T01:04:07;100732.22;;;3.03;100.00
34931;BME280;21134;49.646;8.560;2022-12-07T01:06:34;100727.97;;;3.02;100.00
34931;BME280;21134;49.646;8.560;2022-12-07T01:09:02;100729.66;;;3.01;100.00
34931;BME280;21134;49.646;8.560;2022-12-07T01:11:30;100725.41;;;3.00;100.00
34931;BME280;21134;49.646;8.560;2022-12-07T01:13:59;100735.56;;;3.02;100.00
34931;BME280;21134;49.646;8.560;2022-12-07T01:16:27;100727.13;;;3.01;100.00
34931;BME280;21134;49.646;8.560;2022-12-07T01:18:56;100722.81;;;2.99;100.00
34931;BME280;21134;49.646;8.560;2022-12-07T01:21:25;100718.63;;;2.99;100.00
34931;BME280;21134;49.646;8.560;2022-12-07T01:23:52;100719.44;;;2.98;100.00
34931;BME280;21134;49.646;8.560;2022-12-07T01:26:20;100724.47;;;2.98;100.00
34931;BME280;21134;49.646;8.560;2022-12-07T01:28:47;100726.91;;;2.95;100.00
34931;BME280;21134;49.646;8.560;2022-12-07T01:31:18;100731.09;;;2.95;100.00
34931;BME280;21134;49.646;8.560;2022-12-07T01:33:46;100720.94;;;2.93;100.00
34931;BME280;21134;49.646;8.560;2022-12-07T01:36:15;100728.47;;;2.92;100.00
34931;BME280;21134;49.646;8.560;2022-12-07T01:38:42;100731.03;;;2.93;100.00
34931;BME280;21134;49.646;8.560;2022-12-07T01:41:10;100727.63;;;2.91;100.00
34931;BME280;21134;49.646;8.560;2022-12-07T01:44:06;100726.81;;;2.92;100.00
34931;BME280;21134;49.646;8.560;2022-12-07T01:46:24;100728.34;;;2.87;100.00
34931;BME280;21134;49.646;8.560;2022-12-07T01:48:51;100722.25;;;2.82;100.00
34931;BME280;21134;49.646;8.560;2022-12-07T01:51:18;100719.63;;;2.79;100.00
34931;BME280;21134;49.646;8.560;2022-12-07T01:53:45;100717.91;;;2.78;100.00
34931;BME280;21134;49.646;8.560;2022-12-07T01:56:20;100716.25;;;2.78;100.00
34931;BME280;21134;49.646;8.560;2022-12-07T01:58:50;100721.34;;;2.80;100.00
34931;BME280;21134;49.646;8.560;2022-12-07T02:01:18;100721.34;;;2.80;100.00
34931;BME280;21134;49.646;8.560;2022-12-07T02:03:45;100721.22;;;2.77;100.00
34931;BME280;21134;49.646;8.560;2022-12-07T02:06:16;100714.47;;;2.76;100.00
34931;BME280;21134;49.646;8.560;2022-12-07T02:08:46;100713.72;;;2.78;100.00
34931;BME280;21134;49.646;8.560;2022-12-07T02:11:13;100712.03;;;2.79;100.00
34931;BME280;21134;49.646;8.560;2022-12-07T02:13:40;100712.84;;;2.78;100.00
34931;BME280;21134;49.646;8.560;2022-12-07T02:16:17;100703.50;;;2.75;100.00
34931;BME280;21134;49.646;8.560;2022-12-07T02:18:58;100715.19;;;2.72;100.00
34931;BME280;21134;49.646;8.560;2022-12-07T02:21:36;100717.63;;;2.70;100.00
34931;BME280;21134;49.646;8.560;2022-12-07T02:24:19;100724.25;;;2.67;100.00
34931;BME280;21134;49.646;8.560;2022-12-07T02:27:13;100728.38;;;2.65;100.00
34931;BME280;21134;49.646;8.560;2022-12-07T02:29:49;100721.69;;;2.65;100.00
34931;BME280;21134;49.646;8.560;2022-12-07T02:32:21;100712.44;;;2.66;100.00
34931;BME280;21134;49.646;8.560;2022-12-07T02:34:56;100716.66;;;2.67;100.00
34931;BME280;21134;49.646;8.560;2022-12-07T02:37:34;100716.66;;;2.67;100.00
34931;BME280;21134;49.646;8.560;2022-12-07T02:40:07;100715.06;;;2.69;100.00
34931;BME280;21134;49.646;8.560;2022-12-07T02:42:40;100712.56;;;2.70;100.00
34931;BME280;21134;49.646;8.560;2022-12-07T02:45:10;100710.13;;;2.72;100.00
34931;BME280;21134;49.646;8.560;2022-12-07T02:47:40;100699.28;;;2.74;100.00
34931;BME280;21134;49.646;8.560;2022-12-07T02:50:08;100689.16;;;2.74;100.00
34931;BME280;21134;49.646;8.560;2022-12-07T02:52:35;100698.50;;;2.77;100.00
34931;BME280;21134;49.646;8.560;2022-12-07T02:55:03;100681.66;;;2.77;100.00
34931;BME280;21134;49.646;8.560;2022-12-07T02:57:42;100680.00;;;2.78;100.00
34931;BME280;21134;49.646;8.560;2022-12-07T03:00:15;100676.72;;;2.80;100.00
34931;BME280;21134;49.646;8.560;2022-12-07T03:02:50;100676.81;;;2.84;100.00
34931;BME280;21134;49.646;8.560;2022-12-07T03:05:41;100682.69;;;2.83;100.00
34931;BME280;21134;49.646;8.560;2022-12-07T03:08:15;100679.44;;;2.87;100.00
34931;BME280;21134;49.646;8.560;2022-12-07T03:10:49;100679.53;;;2.90;100.00
34931;BME280;21134;49.646;8.560;2022-12-07T03:13:23;100679.59;;;2.91;100.00
34931;BME280;21134;49.646;8.560;2022-12-07T03:15:56;100677.97;;;2.93;100.00
34931;BME280;21134;49.646;8.560;2022-12-07T03:18:28;100676.34;;;2.94;100.00
34931;BME280;21134;49.646;8.560;2022-12-07T03:20:58;100673.84;;;2.95;100.00
34931;BME280;21134;49.646;8.560;2022-12-07T03:23:27;100668.84;;;2.97;100.00
34931;BME280;21134;49.646;8.560;2022-12-07T03:25:58;100668.03;;;2.98;100.00
34931;BME280;21134;49.646;8.560;2022-12-07T03:28:30;100675.66;;;2.99;100.00
34931;BME280;21134;49.646;8.560;2022-12-07T03:31:02;100665.53;;;2.99;100.00
34931;BME280;21134;49.646;8.560;2022-12-07T03:33:34;100661.44;;;3.03;100.00
34931;BME280;21134;49.646;8.560;2022-12-07T03:36:06;100663.19;;;3.04;100.00
34931;BME280;21134;49.646;8.560;2022-12-07T03:38:38;100655.63;;;3.06;100.00
34931;BME280;21134;49.646;8.560;2022-12-07T03:41:09;100659.94;;;3.08;100.00
34931;BME280;21134;49.646;8.560;2022-12-07T03:43:39;100658.25;;;3.09;100.00
34931;BME280;21134;49.646;8.560;2022-12-07T03:46:17;100657.47;;;3.10;100.00
34931;BME280;21134;49.646;8.560;2022-12-07T03:48:54;100661.63;;;3.09;100.00
34931;BME280;21134;49.646;8.560;2022-12-07T03:51:25;100654.94;;;3.10;100.00
34931;BME280;21134;49.646;8.560;2022-12-07T03:53:58;100659.19;;;3.12;100.00
34931;BME280;21134;49.646;8.560;2022-12-07T03:56:27;100664.25;;;3.12;100.00
34931;BME280;21134;49.646;8.560;2022-12-07T03:58:55;100660.97;;;3.15;100.00
34931;BME280;21134;49.646;8.560;2022-12-07T04:01:24;100657.63;;;3.16;100.00
34931;BME280;21134;49.646;8.560;2022-12-07T04:03:50;100660.16;;;3.16;100.00
34931;BME280;21134;49.646;8.560;2022-12-07T04:06:17;100660.22;;;3.17;100.00
34931;BME280;21134;49.646;8.560;2022-12-07T04:08:43;100660.22;;;3.17;100.00
34931;BME280;21134;49.646;8.560;2022-12-07T04:11:10;100672.03;;;3.18;100.00
34931;BME280;21134;49.646;8.560;2022-12-07T04:13:37;100666.19;;;3.19;100.00
34931;BME280;21134;49.646;8.560;2022-12-07T04:16:17;100661.94;;;3.18;100.00
34931;BME280;21134;49.646;8.560;2022-12-07T04:18:45;100666.19;;;3.19;100.00
34931;BME280;21134;49.646;8.560;2022-12-07T04:21:11;100658.66;;;3.21;100.00
34931;BME280;21134;49.646;8.560;2022-12-07T04:23:38;100650.25;;;3.22;100.00
34931;BME280;21134;49.646;8.560;2022-12-07T04:26:04;100645.16;;;3.20;100.00
34931;BME280;21134;49.646;8.560;2022-12-07T04:28:31;100657.78;;;3.20;100.00
34931;BME280;21134;49.646;8.560;2022-12-07T04:30:57;100656.09;;;3.19;100.00
34931;BME280;21134;49.646;8.560;2022-12-07T04:33:24;100649.34;;;3.20;100.00
34931;BME280;21134;49.646;8.560;2022-12-07T04:35:52;100662.09;;;3.23;100.00
34931;BME280;21134;49.646;8.560;2022-12-07T04:38:18;100668.00;;;3.23;100.00
34931;BME280;21134;49.646;8.560;2022-12-07T04:40:45;100666.22;;;3.21;100.00
34931;BME280;21134;49.646;8.560;2022-12-07T04:43:11;100663.66;;;3.19;100.00
34931;BME280;21134;49.646;8.560;2022-12-07T04:45:38;100661.06;;;3.18;100.00
34931;BME280;21134;49.646;8.560;2022-12-07T04:48:05;100667.94;;;3.22;100.00
34931;BME280;21134;49.646;8.560;2022-12-07T04:50:31;100664.53;;;3.20;100.00
34931;BME280;21134;49.646;8.560;2022-12-07T04:52:59;100658.63;;;3.19;100.00
34931;BME280;21134;49.646;8.560;2022-12-07T04:55:26;100661.13;;;3.19;100.00
34931;BME280;21134;49.646;8.560;2022-12-07T04:57:52;100660.31;;;3.20;100.00
34931;BME280;21134;49.646;8.560;2022-12-07T05:00:19;100660.34;;;3.22;100.00
34931;BME280;21134;49.646;8.560;2022-12-07T05:02:45;100652.75;;;3.22;100.00
34931;BME280;21134;49.646;8.560;2022-12-07T05:05:12;100663.69;;;3.21;100.00
34931;BME280;21134;49.646;8.560;2022-12-07T05:07:38;100662.88;;;3.22;100.00
34931;BME280;21134;49.646;8.560;2022-12-07T05:10:07;100659.47;;;3.20;100.00
34931;BME280;21134;49.646;8.560;2022-12-07T05:12:34;100660.41;;;3.23;100.00
34931;BME280;21134;49.646;8.560;2022-12-07T05:15:01;100655.28;;;3.22;100.00
34931;BME280;21134;49.646;8.560;2022-12-07T05:17:27;100655.50;;;3.28;100.00
34931;BME280;21134;49.646;8.560;2022-12-07T05:19:54;100658.00;;;3.26;100.00
34931;BME280;21134;49.646;8.560;2022-12-07T05:22:20;100647.81;;;3.25;100.00
34931;BME280;21134;49.646;8.560;2022-12-07T05:24:47;100655.56;;;3.30;100.00
34931;BME280;21134;49.646;8.560;2022-12-07T05:27:14;100663.13;;;3.30;100.00
34931;BME280;21134;49.646;8.560;2022-12-07T05:29:41;100664.00;;;3.30;100.00
34931;BME280;21134;49.646;8.560;2022-12-07T05:32:07;100665.69;;;3.31;100.00
34931;BME280;21134;49.646;8.560;2022-12-07T05:34:34;100660.66;;;3.31;100.00
34931;BME280;21134;49.646;8.560;2022-12-07T05:37:00;100658.13;;;3.31;100.00
34931;BME280;21134;49.646;8.560;2022-12-07T05:39:27;100655.66;;;3.33;100.00
34931;BME280;21134;49.646;8.560;2022-12-07T05:41:53;100657.31;;;3.32;100.00
34931;BME280;21134;49.646;8.560;2022-12-07T05:44:40;100652.25;;;3.32;100.00
34931;BME280;21134;49.646;8.560;2022-12-07T05:47:07;100651.44;;;3.33;100.00
34931;BME280;21134;49.646;8.560;2022-12-07T05:49:33;100648.16;;;3.36;100.00
34931;BME280;21134;49.646;8.560;2022-12-07T05:52:00;100643.03;;;3.34;100.00
34931;BME280;21134;49.646;8.560;2022-12-07T05:54:27;100645.56;;;3.34;100.00
34931;BME280;21134;49.646;8.560;2022-12-07T05:56:54;100654.06;;;3.36;100.00
34931;BME280;21134;49.646;8.560;2022-12-07T05:59:20;100648.25;;;3.39;100.00
34931;BME280;21134;49.646;8.560;2022-12-07T06:01:50;100649.94;;;3.38;100.00
34931;BME280;21134;49.646;8.560;2022-12-07T06:04:16;100651.47;;;3.35;100.00
34931;BME280;21134;49.646;8.560;2022-12-07T06:06:43;100652.41;;;3.37;100.00
34931;BME280;21134;49.646;8.560;2022-12-07T06:09:10;100650.69;;;3.36;100.00
34931;BME280;21134;49.646;8.560;2022-12-07T06:11:37;100649.00;;;3.36;100.00
34931;BME280;21134;49.646;8.560;2022-12-07T06:14:21;100653.22;;;3.36;100.00
34931;BME280;21134;49.646;8.560;2022-12-07T06:16:49;100653.16;;;3.34;100.00
34931;BME280;21134;49.646;8.560;2022-12-07T06:19:16;100656.59;;;3.36;100.00
34931;BME280;21134;49.646;8.560;2022-12-07T06:21:42;100653.97;;;3.33;100.00
34931;BME280;21134;49.646;8.560;2022-12-07T06:24:10;100662.41;;;3.34;100.00
34931;BME280;21134;49.646;8.560;2022-12-07T06:26:37;100657.34;;;3.34;100.00
34931;BME280;21134;49.646;8.560;2022-12-07T06:29:04;100656.63;;;3.38;100.00
34931;BME280;21134;49.646;8.560;2022-12-07T06:31:30;100652.47;;;3.38;100.00
34931;BME280;21134;49.646;8.560;2022-12-07T06:33:59;100661.78;;;3.41;100.00
34931;BME280;21134;49.646;8.560;2022-12-07T06:36:26;100663.53;;;3.42;100.00
34931;BME280;21134;49.646;8.560;2022-12-07T06:38:52;100655.03;;;3.40;100.00
34931;BME280;21134;49.646;8.560;2022-12-07T06:41:19;100655.03;;;3.40;100.00
34931;BME280;21134;49.646;8.560;2022-12-07T06:43:46;100657.66;;;3.44;100.00
34931;BME280;21134;49.646;8.560;2022-12-07T06:46:13;100660.16;;;3.43;100.00
34931;BME280;21134;49.646;8.560;2022-12-07T06:48:40;100655.94;;;3.42;100.00
34931;BME280;21134;49.646;8.560;2022-12-07T06:51:08;100660.06;;;3.40;100.00
34931;BME280;21134;49.646;8.560;2022-12-07T06:53:35;100659.22;;;3.39;100.00
34931;BME280;21134;49.646;8.560;2022-12-07T06:56:02;100659.25;;;3.41;100.00
34931;BME280;21134;49.646;8.560;2022-12-07T06:58:29;100664.47;;;3.45;100.00
34931;BME280;21134;49.646;8.560;2022-12-07T07:00:56;100664.41;;;3.44;100.00
34931;BME280;21134;49.646;8.560;2022-12-07T07:03:24;100664.38;;;3.42;100.00
34931;BME280;21134;49.646;8.560;2022-12-07T07:05:50;100662.59;;;3.40;100.00
34931;BME280;21134;49.646;8.560;2022-12-07T07:08:18;100665.09;;;3.38;100.00
34931;BME280;21134;49.646;8.560;2022-12-07T07:10:45;100670.09;;;3.37;100.00
34931;BME280;21134;49.646;8.560;2022-12-07T07:13:11;100667.66;;;3.40;100.00
34931;BME280;21134;49.646;8.560;2022-12-07T07:15:38;100667.69;;;3.41;100.00
34931;BME280;21134;49.646;8.560;2022-12-07T07:18:05;100671.91;;;3.41;100.00
34931;BME280;21134;49.646;8.560;2022-12-07T07:20:31;100669.44;;;3.42;100.00
34931;BME280;21134;49.646;8.560;2022-12-07T07:22:58;100671.13;;;3.43;100.00
34931;BME280;21134;49.646;8.560;2022-12-07T07:25:26;100672.81;;;3.43;100.00
34931;BME280;21134;49.646;8.560;2022-12-07T07:27:52;100673.75;;;3.46;100.00
34931;BME280;21134;49.646;8.560;2022-12-07T07:30:19;100672.94;;;3.47;100.00
34931;BME280;21134;49.646;8.560;2022-12-07T07:32:45;100671.25;;;3.46;100.00
34931;BME280;21134;49.646;8.560;2022-12-07T07:35:12;100670.38;;;3.46;100.00
34931;BME280;21134;49.646;8.560;2022-12-07T07:37:39;100672.06;;;3.45;100.00
34931;BME280;21134;49.646;8.560;2022-12-07T07:40:06;100676.25;;;3.45;100.00
34931;BME280;21134;49.646;8.560;2022-12-07T07:42:34;100678.81;;;3.46;100.00
34931;BME280;21134;49.646;8.560;2022-12-07T07:45:01;100685.56;;;3.46;100.00
34931;BME280;21134;49.646;8.560;2022-12-07T07:47:27;100692.31;;;3.47;100.00
34931;BME280;21134;49.646;8.560;2022-12-07T07:49:54;100688.09;;;3.46;100.00
34931;BME280;21134;49.646;8.560;2022-12-07T07:52:21;100683.03;;;3.46;100.00
34931;BME280;21134;49.646;8.560;2022-12-07T07:54:47;100696.53;;;3.46;100.00
34931;BME280;21134;49.646;8.560;2022-12-07T07:57:13;100687.28;;;3.47;100.00
34931;BME280;21134;49.646;8.560;2022-12-07T07:59:41;100684.81;;;3.48;100.00
34931;BME280;21134;49.646;8.560;2022-12-07T08:02:09;100683.97;;;3.49;100.00
34931;BME280;21134;49.646;8.560;2022-12-07T08:04:39;100691.63;;;3.51;100.00
34931;BME280;21134;49.646;8.560;2022-12-07T08:07:06;100695.00;;;3.52;100.00
34931;BME280;21134;49.646;8.560;2022-12-07T08:09:32;100685.78;;;3.54;100.00
34931;BME280;21134;49.646;8.560;2022-12-07T08:11:59;100688.41;;;3.57;100.00
34931;BME280;21134;49.646;8.560;2022-12-07T08:14:25;100684.28;;;3.60;100.00
34931;BME280;21134;49.646;8.560;2022-12-07T08:16:55;100691.97;;;3.63;100.00
34931;BME280;21134;49.646;8.560;2022-12-07T08:19:22;100694.56;;;3.65;100.00
34931;BME280;21134;49.646;8.560;2022-12-07T08:21:49;100694.66;;;3.68;100.00
34931;BME280;21134;49.646;8.560;2022-12-07T08:24:15;100698.22;;;3.75;100.00
34931;BME280;21134;49.646;8.560;2022-12-07T08:26:42;100699.19;;;3.78;100.00
34931;BME280;21134;49.646;8.560;2022-12-07T08:29:09;100693.28;;;3.79;100.00
34931;BME280;21134;49.646;8.560;2022-12-07T08:31:36;100697.56;;;3.80;100.00
34931;BME280;21134;49.646;8.560;2022-12-07T08:34:03;100693.44;;;3.84;100.00
34931;BME280;21134;49.646;8.560;2022-12-07T08:36:30;100692.81;;;3.91;100.00
34931;BME280;21134;49.646;8.560;2022-12-07T08:38:56;100696.38;;;3.97;100.00
34931;BME280;21134;49.646;8.560;2022-12-07T08:41:23;100703.97;;;3.97;100.00
34931;BME280;21134;49.646;8.560;2022-12-07T08:43:51;100687.16;;;4.00;100.00
34931;BME280;21134;49.646;8.560;2022-12-07T08:46:19;100693.06;;;4.00;100.00
34931;BME280;21134;49.646;8.560;2022-12-07T08:48:50;100696.63;;;4.05;100.00
34931;BME280;21134;49.646;8.560;2022-12-07T08:51:19;100696.63;;;4.07;100.00
34931;BME280;21134;49.646;8.560;2022-12-07T08:53:46;100700.97;;;4.11;100.00
34931;BME280;21134;49.646;8.560;2022-12-07T08:56:13;100697.66;;;4.13;100.00
34931;BME280;21134;49.646;8.560;2022-12-07T08:58:40;100694.31;;;4.14;100.00
34931;BME280;21134;49.646;8.560;2022-12-07T09:01:07;100700.28;;;4.16;100.00
34931;BME280;21134;49.646;8.560;2022-12-07T09:03:33;100693.59;;;4.18;100.00
34931;BME280;21134;49.646;8.560;2022-12-07T09:06:00;100699.69;;;4.25;100.00
34931;BME280;21134;49.646;8.560;2022-12-07T09:08:32;100704.03;;;4.29;100.00
34931;BME280;21134;49.646;8.560;2022-12-07T09:10:59;100704.88;;;4.30;100.00
34931;BME280;21134;49.646;8.560;2022-12-07T09:13:26;100702.44;;;4.33;100.00
34931;BME280;21134;49.646;8.560;2022-12-07T09:15:52;100693.13;;;4.32;100.00
34931;BME280;21134;49.646;8.560;2022-12-07T09:18:18;100704.13;;;4.34;100.00
34931;BME280;21134;49.646;8.560;2022-12-07T09:20:45;100700.84;;;4.36;100.00
34931;BME280;21134;49.646;8.560;2022-12-07T09:23:12;100697.69;;;4.43;100.00
34931;BME280;21134;49.646;8.560;2022-12-07T09:25:40;100707.94;;;4.48;100.00
34931;BME280;21134;49.646;8.560;2022-12-07T09:28:06;100700.44;;;4.53;100.00
34931;BME280;21134;49.646;8.560;2022-12-07T09:30:34;100706.41;;;4.55;100.00
34931;BME280;21134;49.646;8.560;2022-12-07T09:33:00;100698.78;;;4.53;100.00
34931;BME280;21134;49.646;8.560;2022-12-07T09:35:27;100698.69;;;4.50;100.00
34931;BME280;21134;49.646;8.560;2022-12-07T09:37:53;100697.88;;;4.51;100.00
34931;BME280;21134;49.646;8.560;2022-12-07T09:40:22;100703.88;;;4.55;100.00
34931;BME280;21134;49.646;8.560;2022-12-07T09:42:52;100698.06;;;4.59;100.00
34931;BME280;21134;49.646;8.560;2022-12-07T09:45:22;100710.78;;;4.60;100.00
34931;BME280;21134;49.646;8.560;2022-12-07T09:47:49;100699.06;;;4.64;100.00
34931;BME280;21134;49.646;8.560;2022-12-07T09:50:19;100697.44;;;4.66;100.00
34931;BME280;21134;49.646;8.560;2022-12-07T09:52:47;100702.63;;;4.72;100.00
34931;BME280;21134;49.646;8.560;2022-12-07T09:55:18;100698.56;;;4.77;100.00
34931;BME280;21134;49.646;8.560;2022-12-07T09:57:47;100696.94;;;4.81;100.00
34931;BME280;21134;49.646;8.560;2022-12-07T10:00:18;100697.03;;;4.84;100.00
34931;BME280;21134;49.646;8.560;2022-12-07T10:02:46;100692.03;;;4.87;100.00
34931;BME280;21134;49.646;8.560;2022-12-07T10:05:16;100692.19;;;4.92;100.00
34931;BME280;21134;49.646;8.560;2022-12-07T10:07:43;100687.19;;;4.96;100.00
34931;BME280;21134;49.646;8.560;2022-12-07T10:10:14;100688.97;;;5.00;100.00
34931;BME280;21134;49.646;8.560;2022-12-07T10:12:59;100684.91;;;5.05;100.00
34931;BME280;21134;49.646;8.560;2022-12-07T10:15:48;100679.91;;;5.10;100.00
34931;BME280;21134;49.646;8.560;2022-12-07T10:18:21;100685.13;;;5.15;100.00
34931;BME280;21134;49.646;8.560;2022-12-07T10:20:48;100675.94;;;5.20;100.00
34931;BME280;21134;49.646;8.560;2022-12-07T10:23:15;100668.31;;;5.20;100.00
34931;BME280;21134;49.646;8.560;2022-12-07T10:25:42;100666.75;;;5.23;100.00
34931;BME280;21134;49.646;8.560;2022-12-07T10:28:13;100665.91;;;5.24;100.00
34931;BME280;21134;49.646;8.560;2022-12-07T10:30:54;100665.06;;;5.25;100.00
34931;BME280;21134;49.646;8.560;2022-12-07T10:33:32;100663.38;;;5.26;100.00
34931;BME280;21134;49.646;8.560;2022-12-07T10:35:59;100665.91;;;5.24;100.00
34931;BME280;21134;49.646;8.560;2022-12-07T10:38:26;100663.47;;;5.29;100.00
34931;BME280;21134;49.646;8.560;2022-12-07T10:41:04;100667.59;;;5.24;100.00
34931;BME280;21134;49.646;8.560;2022-12-07T10:43:31;100665.94;;;5.26;100.00
34931;BME280;21134;49.646;8.560;2022-12-07T10:49:22;100664.19;;;5.23;100.00
34931;BME280;21134;49.646;8.560;2022-12-07T10:51:55;100662.47;;;5.22;100.00
34931;BME280;21134;49.646;8.560;2022-12-07T10:54:31;100655.69;;;5.21;100.00
34931;BME280;21134;49.646;8.560;2022-12-07T10:57:14;100658.31;;;5.26;100.00
34931;BME280;21134;49.646;8.560;2022-12-07T10:59:55;100649.91;;;5.27;100.00
34931;BME280;21134;49.646;8.560;2022-12-07T11:02:42;100646.63;;;5.32;100.00
34931;BME280;21134;49.646;8.560;2022-12-07T11:05:23;100648.25;;;5.29;100.00
34931;BME280;21134;49.646;8.560;2022-12-07T11:08:00;100650.06;;;5.33;100.00
34931;BME280;21134;49.646;8.560;2022-12-07T11:10:37;100641.63;;;5.35;100.00
34931;BME280;21134;49.646;8.560;2022-12-07T11:13:23;100640.97;;;5.44;100.00
34931;BME280;21134;49.646;8.560;2022-12-07T11:15:59;100633.66;;;5.56;100.00
34931;BME280;21134;49.646;8.560;2022-12-07T11:18:32;100624.59;;;5.69;100.00
34931;BME280;21134;49.646;8.560;2022-12-07T11:21:07;100625.66;;;5.79;100.00
34931;BME280;21134;49.646;8.560;2022-12-07T11:23:46;100619.13;;;5.92;98.73
34931;BME280;21134;49.646;8.560;2022-12-07T11:26:23;100615.97;;;6.02;97.07
34931;BME280;21134;49.646;8.560;2022-12-07T11:29:05;100607.63;;;6.08;97.47
34931;BME280;21134;49.646;8.560;2022-12-07T11:31:38;100606.78;;;6.09;96.76
34931;BME280;21134;49.646;8.560;2022-12-07T11:34:17;100606.72;;;6.05;97.30
34931;BME280;21134;49.646;8.560;2022-12-07T11:36:52;100604.97;;;6.01;96.79
34931;BME280;21134;49.646;8.560;2022-12-07T11:39:25;100601.53;;;5.99;96.73
34931;BME280;21134;49.646;8.560;2022-12-07T11:41:55;100601.31;;;5.89;96.92
34931;BME280;21134;49.646;8.560;2022-12-07T11:44:31;100598.69;;;5.86;96.67
34931;BME280;21134;49.646;8.560;2022-12-07T11:47:04;100597.97;;;5.91;96.26
34931;BME280;21134;49.646;8.560;2022-12-07T11:49:40;100597.06;;;5.88;96.69
34931;BME280;21134;49.646;8.560;2022-12-07T11:52:18;100597.97;;;5.91;95.63
34931;BME280;21134;49.646;8.560;2022-12-07T11:54:49;100592.78;;;5.85;96.79
34931;BME280;21134;49.646;8.560;2022-12-07T11:57:20;100592.84;;;5.88;95.41
34931;BME280;21134;49.646;8.560;2022-12-07T11:59:50;100582.63;;;5.85;95.29
34931;BME280;21134;49.646;8.560;2022-12-07T12:02:22;100581.00;;;5.89;94.91
34931;BME280;21134;49.646;8.560;2022-12-07T12:04:55;100576.81;;;5.91;94.88
34931;BME280;21134;49.646;8.560;2022-12-07T12:07:27;100578.69;;;5.99;92.96
34931;BME280;21134;49.646;8.560;2022-12-07T12:09:57;100585.44;;;5.99;93.44
34931;BME280;21134;49.646;8.560;2022-12-07T12:12:46;100577.88;;;6.00;92.90
34931;BME280;21134;49.646;8.560;2022-12-07T12:15:38;100572.69;;;5.96;92.05
34931;BME280;21134;49.646;8.560;2022-12-07T12:21:04;100582.00;;;5.95;92.05
34931;BME280;21134;49.646;8.560;2022-12-07T12:23:39;100569.22;;;5.92;91.97
34931;BME280;21134;49.646;8.560;2022-12-07T12:26:13;100568.44;;;5.95;89.78
34931;BME280;21134;49.646;8.560;2022-12-07T12:28:50;100566.66;;;5.92;88.96
34931;BME280;21134;49.646;8.560;2022-12-07T12:31:32;100565.63;;;5.82;89.46
34931;BME280;21134;49.646;8.560;2022-12-07T12:34:02;100571.63;;;5.86;87.34
34931;BME280;21134;49.646;8.560;2022-12-07T12:36:44;100568.91;;;5.77;88.00
34931;BME280;21134;49.646;8.560;2022-12-07T12:39:14;100563.75;;;5.74;88.38
34931;BME280;21134;49.646;8.560;2022-12-07T12:41:58;100560.34;;;5.72;88.56
34931;BME280;21134;49.646;8.560;2022-12-07T12:47:53;100553.53;;;5.69;89.82
34931;BME280;21134;49.646;8.560;2022-12-07T12:50:22;100557.78;;;5.70;89.37
34931;BME280;21134;49.646;8.560;2022-12-07T12:52:58;100553.53;;;5.69;89.85
34931;BME280;21134;49.646;8.560;2022-12-07T12:58:33;100547.59;;;5.69;88.71
34931;BME280;21134;49.646;8.560;2022-12-07T13:01:33;100546.00;;;5.74;89.26
34931;BME280;21134;49.646;8.560;2022-12-07T13:04:17;100541.94;;;5.83;89.98
34931;BME280;21134;49.646;8.560;2022-12-07T13:06:45;100535.28;;;5.90;88.41
34931;BME280;21134;49.646;8.560;2022-12-07T13:09:20;100535.28;;;5.87;88.33
34931;BME280;21134;49.646;8.560;2022-12-07T13:11:48;100529.47;;;5.93;88.43
34931;BME280;21134;49.646;8.560;2022-12-07T13:14:52;100530.34;;;5.95;89.58
34931;BME280;21134;49.646;8.560;2022-12-07T13:17:58;100524.41;;;5.94;89.28